Wetterstation Tischlerei-Herzog
Wetterdaten: aktuell Dienstag, 20.08.2019 21:38
Datum Zeit Temp. N Temp. S Temp. Htte Aussentemp. Temp. Bo Feuchte Htt Luftfeuchte Luftdruck Niederschl. Taupunkt empf. Temp.
20.08.2019 21:38 13,8 C 14,8 C 14,7 C 13,8 C 17,7 C 80 % 51 % 1021,0 hPa 0,0 l/m 3,8 C 13,8 C
20.08.2019 20:38 14,7 C 15,3 C 15,4 C 14,7 C 17,7 C 80 % 55 % 1020,8 hPa 0,3 l/m 5,8 C 14,7 C
20.08.2019 19:38 15,0 C 15,7 C 15,8 C 15,0 C 17,8 C 80 % 53 % 1019,7 hPa 0,7 l/m 5,5 C 15,0 C
20.08.2019 18:38 15,5 C 16,7 C 16,7 C 15,5 C 17,8 C 80 % 51 % 1019,6 hPa 1,0 l/m 5,4 C 15,5 C
20.08.2019 17:38 16,5 C 19,3 C 19,3 C 16,5 C 17,8 C 79 % 39 % 1018,4 hPa 0,0 l/m 2,5 C 16,5 C
20.08.2019 16:38 20,7 C 21,1 C 20,7 C 20,7 C 17,7 C 78 % 25 % 1016,8 hPa 0,0 l/m -0,0 C 20,7 C
20.08.2019 15:38 20,9 C 21,3 C 21,1 C 20,9 C 17,6 C 78 % 24 % 1016,7 hPa 0,0 l/m -0,4 C 20,9 C
20.08.2019 14:38 22,0 C 22,4 C 21,8 C 22,0 C 17,5 C 79 % 23 % 1016,6 hPa 0,0 l/m -0,1 C 22,0 C
20.08.2019 13:38 21,4 C 22,3 C 21,1 C 21,4 C 17,5 C 79 % 25 % 1017,7 hPa 0,0 l/m 0,6 C 21,4 C
20.08.2019 12:38 22,1 C 21,8 C 21,0 C 21,8 C 17,4 C 79 % 27 % 1017,7 hPa 0,0 l/m 2,0 C 21,8 C
20.08.2019 11:38 20,4 C 21,8 C 20,9 C 20,4 C 17,4 C 79 % 26 % 1016,8 hPa 0,0 l/m 0,3 C 20,4 C
20.08.2019 10:38 20,5 C 21,9 C 20,2 C 20,5 C 17,5 C 79 % 28 % 1016,8 hPa 0,0 l/m 1,4 C 20,5 C
20.08.2019 09:38 18,8 C 18,6 C 17,9 C 18,6 C 17,5 C 82 % 37 % 1017,1 hPa 0,0 l/m 3,6 C 18,6 C
20.08.2019 08:38 18,3 C 16,2 C 15,4 C 16,2 C 17,6 C 83 % 42 % 1017,4 hPa 0,0 l/m 3,3 C 16,2 C
20.08.2019 07:38 13,6 C 12,5 C 11,6 C 12,5 C 17,7 C 82 % 52 % 1017,0 hPa 0,0 l/m 2,9 C 12,5 C
20.08.2019 06:38 10,5 C 11,4 C 10,6 C 10,5 C 17,9 C 82 % 55 % 1017,3 hPa 0,0 l/m 1,8 C 10,5 C
20.08.2019 05:38 10,4 C 11,1 C 10,8 C 10,4 C 18,1 C 82 % 55 % 1017,3 hPa 0,0 l/m 1,8 C 10,4 C
20.08.2019 04:38 10,5 C 11,8 C 11,1 C 10,5 C 18,3 C 82 % 54 % 1016,2 hPa 0,0 l/m 1,6 C 10,5 C
20.08.2019 03:38 11,3 C 12,2 C 11,7 C 11,3 C 18,4 C 82 % 54 % 1017,2 hPa 0,0 l/m 2,3 C 11,3 C
20.08.2019 02:38 11,9 C 13,2 C 12,8 C 11,9 C 18,6 C 82 % 51 % 1017,1 hPa 0,0 l/m 2,1 C 11,9 C
20.08.2019 01:38 13,3 C 14,2 C 13,7 C 13,3 C 18,7 C 82 % 48 % 1015,8 hPa 0,0 l/m 2,5 C 13,3 C
20.08.2019 00:38 14,1 C 14,9 C 14,5 C 14,1 C 18,9 C 82 % 46 % 1015,7 hPa 0,0 l/m 2,7 C 14,1 C
19.08.2019 23:38 14,7 C 15,7 C 15,2 C 14,7 C 19,0 C 81 % 42 % 1015,6 hPa 0,0 l/m 1,9 C 14,7 C
19.08.2019 22:26 15,4 C 16,7 C 16,2 C 15,4 C 19,0 C 81 % 38 % 1015,5 hPa 0,0 l/m 1,2 C 15,4 C
19.08.2019 22:01 15,6 C 17,4 C 16,9 C 15,6 C 19,0 C 81 % 37 % 1015,4 hPa 0,0 l/m 1,0 C 15,6 C
_ Min-Zeit 05:58 05:43 05:48 05:58 10:18 15:08 11:08 22:31 - 11:08 05:58
Minimum _ 10,0 C 11,0 C 10,5 C 10,0 C 17,4 C 78 % 22 % 1014,5 hPa - -1,2 C 8,3 C
_ Max-Zeit 14:23 11:08 14:33 14:23 22:01 08:13 06:08 21:28 17:43 19:48 14:23
Maximum _ 22,4 C 23,9 C 21,8 C 22,4 C 19,0 C 83 % 56 % 1021,0 hPa 0,3 l/m 6,0 C 22,4 C
Durchschnitt _ 16,2 C 16,9 C 16,3 C 16,0 C 18,1 C 81 % 41 % 1017,2 hPa #2,1 l/m 2,2 C 16,0 C
Tischlerei Herzog